createdAt,value
2018-09-12T00:00:27.886Z,7.47
2018-09-12T00:02:57.551Z,13.83
2018-09-12T00:05:27.510Z,8.30
2018-09-12T00:07:57.039Z,14.13
2018-09-12T00:10:26.785Z,8.10
2018-09-12T00:12:56.905Z,8.23
2018-09-12T00:15:26.507Z,6.87
2018-09-12T00:17:56.518Z,9.60
2018-09-12T00:20:26.173Z,7.67
2018-09-12T00:22:56.151Z,16.97
2018-09-12T00:25:25.709Z,16.30
2018-09-12T00:27:55.328Z,8.40
2018-09-12T00:30:25.201Z,11.90
2018-09-12T00:32:54.919Z,9.13
2018-09-12T00:35:24.815Z,10.30
2018-09-12T00:37:54.508Z,11.90
2018-09-12T00:40:24.148Z,7.67
2018-09-12T00:42:57.827Z,8.40
2018-09-12T00:45:32.657Z,9.80
2018-09-12T00:48:05.833Z,11.63
2018-09-12T00:50:40.284Z,13.13
2018-09-12T00:53:12.631Z,6.97
2018-09-12T00:55:42.542Z,11.83
2018-09-12T00:58:15.001Z,10.43
2018-09-12T01:00:46.878Z,14.07
2018-09-12T01:03:19.160Z,10.33
2018-09-12T01:05:50.854Z,14.27
2018-09-12T01:08:22.976Z,8.27
2018-09-12T01:10:57.089Z,5.47
2018-09-12T01:13:30.726Z,5.33
2018-09-12T01:16:03.217Z,12.43
2018-09-12T01:18:35.738Z,11.47
2018-09-12T01:21:11.280Z,11.37
2018-09-12T01:23:42.511Z,12.13
2018-09-12T01:26:14.830Z,21.73
2018-09-12T01:28:48.414Z,11.43
2018-09-12T01:31:18.660Z,15.63
2018-09-12T01:33:50.232Z,17.00
2018-09-12T01:36:23.482Z,11.70
2018-09-12T01:38:54.309Z,12.07
2018-09-12T01:41:25.377Z,11.87
2018-09-12T01:43:56.706Z,10.57
2018-09-12T01:46:26.679Z,8.63
2018-09-12T01:48:57.958Z,9.30
2018-09-12T01:51:31.849Z,7.30
2018-09-12T01:54:04.688Z,11.23
2018-09-12T01:56:36.283Z,9.67
2018-09-12T01:59:11.191Z,14.33
2018-09-12T02:01:46.699Z,18.13
2018-09-12T02:04:21.248Z,16.20
2018-09-12T02:06:55.323Z,15.80
2018-09-12T02:09:29.764Z,9.13
2018-09-12T02:12:03.036Z,10.30
2018-09-12T02:14:37.160Z,11.73
2018-09-12T02:17:09.084Z,29.77
2018-09-12T02:19:39.560Z,16.63
2018-09-12T02:22:15.287Z,9.30
2018-09-12T02:24:48.659Z,11.57
2018-09-12T02:27:20.035Z,15.23
2018-09-12T02:29:50.166Z,30.43
2018-09-12T02:32:23.350Z,22.20
2018-09-12T02:34:55.748Z,13.13
2018-09-12T02:37:28.449Z,18.70
2018-09-12T02:40:00.174Z,17.83
2018-09-12T02:42:29.872Z,11.83
2018-09-12T02:45:03.260Z,11.60
2018-09-12T02:47:36.767Z,14.77
2018-09-12T02:50:12.708Z,20.33
2018-09-12T02:52:46.485Z,13.33
2018-09-12T02:55:19.678Z,22.13
2018-09-12T02:57:51.682Z,20.93
2018-09-12T03:00:24.359Z,9.23
2018-09-12T03:02:58.579Z,16.23
2018-09-12T03:05:34.085Z,14.13
2018-09-12T03:08:06.045Z,8.40
2018-09-12T03:10:39.838Z,7.93
2018-09-12T03:13:14.268Z,11.93
2018-09-12T03:15:47.474Z,32.90
2018-09-12T03:18:21.330Z,26.43
2018-09-12T03:20:53.965Z,18.67
2018-09-12T03:23:24.797Z,17.53
2018-09-12T03:26:02.177Z,23.33
2018-09-12T03:28:34.192Z,18.77
2018-09-12T03:31:07.970Z,12.40
2018-09-12T03:33:41.701Z,28.97
2018-09-12T03:36:17.499Z,9.93
2018-09-12T03:38:47.697Z,10.20
2018-09-12T03:41:22.020Z,22.60
2018-09-12T03:43:55.895Z,15.73
2018-09-12T03:46:30.427Z,15.97
2018-09-12T03:49:04.420Z,19.60
2018-09-12T03:51:39.379Z,16.63
2018-09-12T03:54:12.172Z,10.47
2018-09-12T03:56:42.880Z,18.83
2018-09-12T03:59:13.013Z,13.77
2018-09-12T04:01:47.817Z,13.50
2018-09-12T04:04:21.435Z,12.27
2018-09-12T04:06:56.485Z,8.37
2018-09-12T04:09:28.946Z,19.27
2018-09-12T04:11:58.678Z,17.03
2018-09-12T04:14:32.302Z,20.00
2018-09-12T04:17:02.992Z,19.30
2018-09-12T04:19:36.735Z,18.07
2018-09-12T04:22:06.403Z,16.33
2018-09-12T04:24:40.771Z,20.20
2018-09-12T04:27:11.054Z,22.87
2018-09-12T04:29:44.332Z,12.13
2018-09-12T04:32:19.222Z,24.90
2018-09-12T04:34:52.788Z,17.37
2018-09-12T04:37:28.725Z,15.33
2018-09-12T04:40:14.046Z,25.83
2018-09-12T04:42:44.968Z,23.73
2018-09-12T04:45:14.639Z,40.10
2018-09-12T04:47:46.097Z,21.13
2018-09-12T04:50:21.806Z,32.43
2018-09-12T04:52:53.802Z,23.57
2018-09-12T04:55:27.390Z,19.50
2018-09-12T04:57:58.499Z,18.47
2018-09-12T05:00:28.557Z,15.40
2018-09-12T05:02:58.358Z,30.83
2018-09-12T05:05:33.291Z,26.13
2018-09-12T05:08:05.753Z,33.77
2018-09-12T05:10:35.971Z,31.93
2018-09-12T05:13:07.277Z,35.10
2018-09-12T05:15:38.099Z,26.27
2018-09-12T05:18:08.364Z,31.63
2018-09-12T05:20:41.858Z,34.10
2018-09-12T05:23:14.503Z,43.07
2018-09-12T05:25:47.760Z,37.90
2018-09-12T05:28:20.258Z,46.23
2018-09-12T05:30:52.100Z,25.07
2018-09-12T05:33:27.185Z,30.20
2018-09-12T05:36:01.320Z,34.03
2018-09-12T05:38:31.748Z,32.53
2018-09-12T05:41:02.076Z,32.37
2018-09-12T05:43:33.452Z,41.80
2018-09-12T05:46:06.528Z,28.83
2018-09-12T05:48:40.171Z,27.13
2018-09-12T05:51:15.121Z,29.87
2018-09-12T05:53:45.614Z,28.10
2018-09-12T05:56:15.523Z,26.13
2018-09-12T05:58:44.898Z,27.63
2018-09-12T06:01:14.277Z,23.47
2018-09-12T06:03:44.348Z,27.00
2018-09-12T06:06:13.668Z,15.80
2018-09-12T06:08:43.038Z,23.73
2018-09-12T06:11:14.109Z,28.63
2018-09-12T06:13:43.514Z,26.33
2018-09-12T06:16:12.763Z,17.20
2018-09-12T06:18:42.167Z,17.20
2018-09-12T06:21:11.461Z,19.67
2018-09-12T06:23:40.847Z,20.53
2018-09-12T06:26:10.783Z,24.93
2018-09-12T06:28:40.102Z,22.13
2018-09-12T06:31:09.409Z,25.33
2018-09-12T06:33:39.400Z,18.13
2018-09-12T06:36:08.831Z,15.73
2018-09-12T06:38:38.315Z,16.27
2018-09-12T06:41:09.311Z,10.60
2018-09-12T06:43:39.627Z,15.50
2018-09-12T06:46:08.982Z,14.67
2018-09-12T06:48:38.967Z,22.77
2018-09-12T06:51:08.395Z,24.17
2018-09-12T06:53:37.940Z,11.10
2018-09-12T06:56:08.327Z,24.20
2018-09-12T06:58:37.586Z,19.53
2018-09-12T07:01:07.505Z,9.97
2018-09-12T07:03:36.901Z,16.73
2018-09-12T07:06:06.201Z,9.10
2018-09-12T07:08:35.674Z,9.33
2018-09-12T07:11:05.718Z,15.80
2018-09-12T07:13:35.005Z,18.53
2018-09-12T07:16:04.424Z,19.83
2018-09-12T07:18:33.890Z,13.20
2018-09-12T07:21:04.056Z,18.90
2018-09-12T07:23:33.450Z,9.30
2018-09-12T07:26:02.939Z,11.57
2018-09-12T07:28:32.407Z,16.37
2018-09-12T07:31:01.823Z,16.60
2018-09-12T07:33:31.321Z,16.53
2018-09-12T07:36:00.858Z,14.77
2018-09-12T07:38:30.563Z,11.73
2018-09-12T07:40:59.974Z,14.63
2018-09-12T07:43:29.354Z,14.70
2018-09-12T07:45:58.902Z,13.17
2018-09-12T07:48:28.483Z,17.07
2018-09-12T07:50:58.009Z,11.10
2018-09-12T07:53:27.527Z,22.93
2018-09-12T07:55:57.831Z,10.20
2018-09-12T07:58:27.416Z,16.60
2018-09-12T08:00:57.048Z,12.07
2018-09-12T08:03:26.601Z,15.60
2018-09-12T08:05:56.272Z,14.07
2018-09-12T08:08:25.841Z,8.60
2018-09-12T08:10:56.528Z,15.00
2018-09-12T08:13:26.037Z,17.10
2018-09-12T08:15:55.374Z,25.03
2018-09-12T08:18:24.796Z,9.70
2018-09-12T08:20:54.419Z,12.43
2018-09-12T08:23:24.299Z,12.30
2018-09-12T08:25:53.911Z,18.07
2018-09-12T08:28:23.371Z,14.23
2018-09-12T08:30:54.874Z,13.80
2018-09-12T08:33:24.636Z,6.30
2018-09-12T08:35:54.088Z,12.17
2018-09-12T08:38:23.639Z,12.27
2018-09-12T08:40:53.009Z,12.03
2018-09-12T08:43:22.804Z,6.33
2018-09-12T08:45:52.294Z,15.10
2018-09-12T08:48:21.807Z,15.60
2018-09-12T08:50:52.140Z,9.13
2018-09-12T08:53:21.865Z,16.07
2018-09-12T08:55:51.315Z,12.43
2018-09-12T08:58:20.685Z,6.87
2018-09-12T09:00:49.987Z,12.23
2018-09-12T09:03:20.333Z,8.60
2018-09-12T09:05:50.601Z,12.10
2018-09-12T09:08:19.896Z,12.50
2018-09-12T09:10:49.288Z,13.23
2018-09-12T09:13:19.626Z,13.53
2018-09-12T09:15:48.947Z,15.37
2018-09-12T09:18:18.340Z,9.40
2018-09-12T09:20:47.588Z,11.13
2018-09-12T09:23:16.874Z,11.77
2018-09-12T09:25:46.227Z,13.27
2018-09-12T09:28:15.518Z,15.53
2018-09-12T09:30:44.819Z,5.23
2018-09-12T09:33:14.327Z,21.50
2018-09-12T09:35:43.751Z,9.33
2018-09-12T09:38:12.841Z,13.50
2018-09-12T09:40:42.642Z,12.43
2018-09-12T09:43:11.977Z,24.87
2018-09-12T09:45:41.346Z,14.40
2018-09-12T09:48:10.694Z,10.53
2018-09-12T09:50:39.825Z,14.87
2018-09-12T09:53:09.126Z,13.70
2018-09-12T09:55:38.573Z,9.83
2018-09-12T09:58:07.887Z,13.53
2018-09-12T10:00:43.866Z,15.47
2018-09-12T10:03:18.309Z,25.23
2018-09-12T10:05:52.973Z,8.07
2018-09-12T10:08:27.706Z,10.93
2018-09-12T10:10:57.906Z,14.40
2018-09-12T10:13:27.412Z,13.70
2018-09-12T10:15:57.430Z,10.80
2018-09-12T10:18:26.937Z,11.90
2018-09-12T10:20:56.442Z,10.53
2018-09-12T10:23:26.283Z,12.07
2018-09-12T10:25:56.505Z,8.63
2018-09-12T10:28:26.356Z,10.90
2018-09-12T10:30:55.801Z,19.83
2018-09-12T10:33:25.984Z,8.70
2018-09-12T10:35:55.465Z,5.93
2018-09-12T10:38:24.823Z,5.07
2018-09-12T10:40:54.864Z,7.63
2018-09-12T10:43:24.358Z,7.63
2018-09-12T10:45:53.744Z,7.63
2018-09-12T10:48:24.291Z,10.97
2018-09-12T10:50:54.473Z,6.60
2018-09-12T10:53:24.197Z,9.23
2018-09-12T10:55:55.449Z,4.90
2018-09-12T10:58:24.921Z,5.57
2018-09-12T11:00:54.478Z,10.73
2018-09-12T11:03:24.975Z,7.47
2018-09-12T11:05:54.533Z,4.40
2018-09-12T11:08:24.275Z,3.07
2018-09-12T11:10:54.240Z,5.93
2018-09-12T11:13:23.606Z,8.53
2018-09-12T11:15:53.237Z,7.60
2018-09-12T11:18:22.802Z,4.43
2018-09-12T11:20:52.758Z,7.03
2018-09-12T11:23:22.178Z,3.07
2018-09-12T11:25:52.259Z,3.80
2018-09-12T11:28:21.605Z,4.00
2018-09-12T11:30:50.973Z,8.17
2018-09-12T11:33:20.248Z,4.10
2018-09-12T11:35:49.528Z,2.87
2018-09-12T11:38:19.110Z,6.20
2018-09-12T11:40:50.309Z,6.77
2018-09-12T11:43:20.099Z,1.30
2018-09-12T11:45:49.413Z,5.83
2018-09-12T11:48:18.657Z,4.57
2018-09-12T11:50:48.021Z,3.70
2018-09-12T11:53:17.244Z,9.20
2018-09-12T11:55:47.414Z,6.40
2018-09-12T11:58:16.777Z,10.47
2018-09-12T12:00:46.106Z,8.43
2018-09-12T12:03:16.152Z,7.13
2018-09-12T12:05:46.000Z,14.67
2018-09-12T12:08:15.304Z,7.83
2018-09-12T12:10:45.312Z,10.50
2018-09-12T12:13:14.551Z,4.73
2018-09-12T12:15:43.930Z,4.83
2018-09-12T12:18:17.315Z,10.60
2018-09-12T12:20:46.597Z,4.53
2018-09-12T12:23:15.934Z,3.20
2018-09-12T12:25:46.850Z,6.23
2018-09-12T12:28:16.231Z,6.00
2018-09-12T12:30:45.861Z,3.00
2018-09-12T12:33:15.674Z,10.83
2018-09-12T12:35:44.898Z,5.10
2018-09-12T12:38:14.141Z,2.67
2018-09-12T12:40:43.478Z,5.87
2018-09-12T12:43:12.875Z,4.83
2018-09-12T12:45:42.195Z,29.27
2018-09-12T12:48:12.382Z,4.70
2018-09-12T12:50:41.605Z,6.63
2018-09-12T12:53:10.869Z,6.00
2018-09-12T12:55:41.096Z,4.30
2018-09-12T12:58:10.313Z,3.13
2018-09-12T13:00:39.541Z,3.50
2018-09-12T13:03:09.465Z,3.60
2018-09-12T13:05:38.810Z,8.10
2018-09-12T13:08:08.233Z,2.57
2018-09-12T13:10:38.332Z,2.00
2018-09-12T13:13:07.690Z,7.20
2018-09-12T13:15:37.062Z,2.73
2018-09-12T13:18:07.469Z,2.50
2018-09-12T13:20:36.785Z,11.20
2018-09-12T13:23:06.193Z,3.23
2018-09-12T13:25:35.910Z,4.23
2018-09-12T13:28:06.124Z,5.30
2018-09-12T13:30:35.482Z,2.10
2018-09-12T13:33:05.140Z,3.20
2018-09-12T13:35:34.423Z,6.00
2018-09-12T13:38:03.753Z,4.07
2018-09-12T13:40:33.453Z,5.30
2018-09-12T13:43:02.907Z,4.93
2018-09-12T13:45:32.677Z,5.47
2018-09-12T13:48:02.260Z,2.93
2018-09-12T13:50:31.673Z,4.17
2018-09-12T13:53:01.198Z,6.60
2018-09-12T13:55:30.629Z,1.13
2018-09-12T13:58:00.169Z,2.40
2018-09-12T14:00:31.978Z,4.60
2018-09-12T14:03:03.071Z,3.43
2018-09-12T14:05:33.235Z,8.13
2018-09-12T14:08:02.687Z,7.80
2018-09-12T14:10:32.201Z,4.73
2018-09-12T14:13:01.733Z,3.80
2018-09-12T14:15:31.346Z,4.10
2018-09-12T14:18:00.980Z,3.13
2018-09-12T14:20:30.349Z,2.93
2018-09-12T14:22:59.988Z,5.67
2018-09-12T14:25:31.483Z,4.70
2018-09-12T14:28:00.809Z,2.43
2018-09-12T14:30:30.345Z,3.80
2018-09-12T14:32:59.787Z,3.50
2018-09-12T14:35:29.538Z,5.10
2018-09-12T14:37:59.220Z,2.20
2018-09-12T14:40:30.473Z,6.27
2018-09-12T14:42:59.933Z,6.53
2018-09-12T14:45:29.442Z,5.60
2018-09-12T14:47:59.427Z,4.83
2018-09-12T14:50:29.303Z,2.17
2018-09-12T14:52:58.605Z,2.87
2018-09-12T14:55:28.337Z,8.70
2018-09-12T14:57:57.962Z,3.70
2018-09-12T15:00:29.478Z,2.00
2018-09-12T15:02:59.634Z,1.80
2018-09-12T15:05:29.211Z,10.70
2018-09-12T15:07:58.890Z,4.27
2018-09-12T15:10:28.579Z,4.00
2018-09-12T15:13:02.331Z,7.10
2018-09-12T15:15:31.937Z,14.07
2018-09-12T15:18:01.707Z,2.30
2018-09-12T15:20:32.004Z,3.03
2018-09-12T15:23:01.408Z,7.77
2018-09-12T15:25:30.810Z,5.40
2018-09-12T15:28:00.198Z,7.50
2018-09-12T15:30:29.805Z,11.73
2018-09-12T15:32:59.205Z,6.10
2018-09-12T15:35:29.006Z,10.50
2018-09-12T15:37:58.833Z,4.90
2018-09-12T15:40:29.547Z,4.87
2018-09-12T15:43:13.469Z,2.63
2018-09-12T15:45:43.183Z,4.70
2018-09-12T15:48:12.649Z,6.33
2018-09-12T15:50:42.541Z,4.63
2018-09-12T15:53:12.081Z,7.70
2018-09-12T15:55:41.771Z,5.40
2018-09-12T15:58:11.098Z,7.40
2018-09-12T16:00:40.332Z,4.30
2018-09-12T16:03:10.201Z,15.63
2018-09-12T16:05:39.544Z,4.90
2018-09-12T16:08:08.825Z,6.23
2018-09-12T16:10:39.393Z,2.90
2018-09-12T16:13:09.087Z,8.30
2018-09-12T16:15:38.371Z,4.80
2018-09-12T16:18:07.721Z,10.93
2018-09-12T16:20:36.989Z,7.90
2018-09-12T16:23:06.414Z,3.37
2018-09-12T16:25:35.894Z,5.57
2018-09-12T16:28:05.269Z,10.57
2018-09-12T16:30:34.569Z,5.53
2018-09-12T16:33:04.148Z,8.57
2018-09-12T16:35:33.419Z,6.70
2018-09-12T16:38:03.054Z,4.93
2018-09-12T16:40:32.581Z,11.63
2018-09-12T16:43:02.211Z,7.50
2018-09-12T16:45:31.720Z,5.33
2018-09-12T16:48:01.674Z,3.10
2018-09-12T16:50:31.332Z,2.70
2018-09-12T16:53:00.878Z,9.93
2018-09-12T16:55:30.444Z,4.60
2018-09-12T16:57:59.996Z,12.00
2018-09-12T17:00:30.177Z,2.70
2018-09-12T17:02:59.884Z,6.93
2018-09-12T17:05:29.677Z,6.00
2018-09-12T17:07:59.608Z,11.10
2018-09-12T17:10:29.622Z,5.23
2018-09-12T17:12:59.545Z,8.40
2018-09-12T17:15:29.405Z,5.50
2018-09-12T17:17:59.329Z,7.13
2018-09-12T17:20:31.166Z,7.70
2018-09-12T17:23:00.764Z,3.93
2018-09-12T17:25:30.434Z,6.53
2018-09-12T17:28:00.205Z,5.97
2018-09-12T17:30:29.659Z,10.40
2018-09-12T17:32:59.377Z,10.27
2018-09-12T17:35:29.537Z,4.40
2018-09-12T17:37:59.464Z,10.43
2018-09-12T17:40:29.013Z,8.23
2018-09-12T17:42:58.822Z,4.47
2018-09-12T17:45:28.492Z,9.33
2018-09-12T17:47:57.984Z,13.53
2018-09-12T17:50:27.624Z,3.20
2018-09-12T17:52:58.500Z,2.03
2018-09-12T17:55:28.492Z,6.40
2018-09-12T17:57:58.196Z,7.40
2018-09-12T18:00:28.210Z,3.90
2018-09-12T18:02:59.225Z,7.73
2018-09-12T18:05:29.127Z,7.80
2018-09-12T18:07:58.949Z,9.13
2018-09-12T18:10:28.898Z,8.60
2018-09-12T18:12:59.051Z,5.07
2018-09-12T18:15:28.928Z,20.73
2018-09-12T18:17:58.825Z,12.67
2018-09-12T18:20:28.783Z,5.80
2018-09-12T18:22:58.501Z,12.37
2018-09-12T18:25:29.309Z,11.93
2018-09-12T18:28:00.036Z,7.63
2018-09-12T18:30:31.281Z,10.13
2018-09-12T18:33:00.924Z,4.50
2018-09-12T18:35:31.301Z,11.60
2018-09-12T18:38:01.090Z,2.70
2018-09-12T18:40:31.305Z,10.70
2018-09-12T18:43:01.525Z,10.23
2018-09-12T18:45:31.043Z,8.83
2018-09-12T18:48:00.421Z,11.70
2018-09-12T18:50:29.942Z,8.40
2018-09-12T18:53:00.022Z,8.90
2018-09-12T18:55:29.583Z,7.10
2018-09-12T18:57:59.438Z,5.10
2018-09-12T19:00:29.073Z,7.53
2018-09-12T19:02:59.936Z,13.90
2018-09-12T19:05:31.099Z,17.77
2018-09-12T19:08:00.819Z,10.33
2018-09-12T19:10:30.530Z,8.70
2018-09-12T19:13:01.059Z,7.73
2018-09-12T19:15:31.630Z,9.73
2018-09-12T19:18:01.685Z,14.40
2018-09-12T19:20:31.732Z,7.10
2018-09-12T19:23:01.339Z,16.13
2018-09-12T19:25:31.145Z,9.20
2018-09-12T19:28:00.825Z,10.50
2018-09-12T19:30:30.980Z,10.33
2018-09-12T19:33:00.620Z,10.50
2018-09-12T19:35:30.447Z,8.00
2018-09-12T19:38:00.132Z,11.87
2018-09-12T19:40:30.122Z,28.60
2018-09-12T19:42:59.878Z,15.50
2018-09-12T19:45:29.536Z,19.40
2018-09-12T19:47:59.200Z,7.70
2018-09-12T19:50:29.099Z,13.97
2018-09-12T19:52:59.137Z,14.60
2018-09-12T19:55:28.763Z,8.97
2018-09-12T19:57:58.956Z,12.63
2018-09-12T20:00:28.936Z,8.07
2018-09-12T20:02:58.528Z,9.13
2018-09-12T20:05:28.193Z,9.87
2018-09-12T20:07:57.888Z,7.50
2018-09-12T20:10:28.511Z,7.03
2018-09-12T20:12:58.451Z,7.03
2018-09-12T20:15:28.214Z,10.17
2018-09-12T20:17:58.884Z,3.90
2018-09-12T20:20:28.653Z,9.60
2018-09-12T20:22:58.745Z,17.30
2018-09-12T20:25:30.225Z,8.23
2018-09-12T20:27:59.800Z,9.10
2018-09-12T20:30:29.582Z,10.17
2018-09-12T20:33:00.701Z,7.63
2018-09-12T20:35:30.761Z,8.63
2018-09-12T20:38:00.396Z,13.90
2018-09-12T20:40:30.351Z,10.33
2018-09-12T20:43:00.084Z,8.07
2018-09-12T20:45:29.952Z,10.07
2018-09-12T20:47:59.506Z,15.40
2018-09-12T20:50:29.092Z,7.70
2018-09-12T20:52:59.000Z,6.63
2018-09-12T20:55:29.713Z,20.33
2018-09-12T20:58:00.357Z,22.60
2018-09-12T21:00:30.069Z,14.13
2018-09-12T21:02:59.766Z,7.27
2018-09-12T21:05:30.083Z,14.80
2018-09-12T21:07:59.733Z,9.10
2018-09-12T21:10:30.431Z,9.80
2018-09-12T21:13:01.059Z,19.73
2018-09-12T21:15:30.482Z,10.83
2018-09-12T21:18:01.685Z,10.03
2018-09-12T21:20:31.009Z,13.70
2018-09-12T21:23:00.562Z,8.27
2018-09-12T21:25:30.729Z,10.23
2018-09-12T21:28:01.260Z,13.87
2018-09-12T21:30:30.913Z,18.13
2018-09-12T21:33:00.631Z,17.90
2018-09-12T21:35:30.122Z,16.10
2018-09-12T21:38:06.162Z,14.50
2018-09-12T21:40:35.687Z,7.33
2018-09-12T21:43:05.048Z,10.43
2018-09-12T21:45:34.655Z,10.80
2018-09-12T21:48:04.031Z,17.13
2018-09-12T21:50:34.026Z,21.07
2018-09-12T21:53:05.049Z,29.97
2018-09-12T21:55:35.083Z,7.50
2018-09-12T21:58:04.749Z,12.33
2018-09-12T22:00:34.607Z,13.80
2018-09-12T22:03:03.991Z,13.97
2018-09-12T22:05:33.408Z,13.53
2018-09-12T22:08:03.482Z,10.97
2018-09-12T22:10:32.883Z,11.50
2018-09-12T22:13:02.326Z,7.80
2018-09-12T22:15:32.205Z,11.40
2018-09-12T22:18:03.321Z,14.43
2018-09-12T22:20:33.488Z,14.90
2018-09-12T22:23:03.030Z,16.70
2018-09-12T22:25:32.585Z,12.13
2018-09-12T22:28:02.924Z,13.90
2018-09-12T22:30:32.252Z,8.83
2018-09-12T22:33:01.813Z,17.17
2018-09-12T22:35:31.432Z,15.80
2018-09-12T22:38:00.941Z,23.53
2018-09-12T22:40:30.630Z,21.47
2018-09-12T22:43:00.204Z,16.63
2018-09-12T22:45:29.761Z,12.40
2018-09-12T22:47:59.303Z,10.47
2018-09-12T22:50:29.202Z,21.97
2018-09-12T22:52:58.668Z,16.33
2018-09-12T22:55:28.076Z,19.90
2018-09-12T22:57:57.849Z,10.33
2018-09-12T23:00:27.619Z,12.07
2018-09-12T23:02:57.144Z,17.73
2018-09-12T23:05:27.448Z,7.43
2018-09-12T23:07:56.874Z,18.10
2018-09-12T23:10:26.378Z,18.13
2018-09-12T23:12:55.907Z,16.80
2018-09-12T23:15:27.385Z,20.07
2018-09-12T23:17:57.158Z,24.23
2018-09-12T23:20:26.662Z,13.20
2018-09-12T23:22:56.105Z,20.40
2018-09-12T23:25:25.484Z,18.63
2018-09-12T23:29:19.247Z,14.10
2018-09-12T23:31:48.668Z,14.80
2018-09-12T23:34:18.447Z,19.57
2018-09-12T23:36:47.812Z,25.50
2018-09-12T23:39:17.099Z,12.60
2018-09-12T23:41:46.409Z,15.90
2018-09-12T23:44:15.738Z,27.27
2018-09-12T23:46:45.033Z,24.97
2018-09-12T23:49:14.328Z,21.30
2018-09-12T23:51:44.446Z,7.40
2018-09-12T23:54:13.780Z,31.40
2018-09-12T23:56:43.133Z,9.10
2018-09-12T23:59:12.347Z,36.47
